sensor_id;sensor_type;location;lat;lon;timestamp;pressure;altitude;pressure_sealevel;temperature
27826;BMP280;15077;49.704;9.908;2023-04-01T00:01:13;96593.00;;;13.88
27826;BMP280;15077;49.704;9.908;2023-04-01T00:03:44;96604.09;;;13.87
27826;BMP280;15077;49.704;9.908;2023-04-01T00:06:17;96588.16;;;13.85
27826;BMP280;15077;49.704;9.908;2023-04-01T00:08:46;96588.25;;;13.84
27826;BMP280;15077;49.704;9.908;2023-04-01T00:11:15;96585.59;;;13.85
27826;BMP280;15077;49.704;9.908;2023-04-01T00:13:41;96591.50;;;13.86
27826;BMP280;15077;49.704;9.908;2023-04-01T00:16:09;96598.44;;;13.84
27826;BMP280;15077;49.704;9.908;2023-04-01T00:18:35;96587.31;;;13.85
27826;BMP280;15077;49.704;9.908;2023-04-01T00:21:01;96588.16;;;13.85
27826;BMP280;15077;49.704;9.908;2023-04-01T00:23:28;96590.69;;;13.85
27826;BMP280;15077;49.704;9.908;2023-04-01T00:25:55;96583.06;;;13.85
27826;BMP280;15077;49.704;9.908;2023-04-01T00:28:20;96585.72;;;13.84
27826;BMP280;15077;49.704;9.908;2023-04-01T00:30:48;96586.41;;;13.86
27826;BMP280;15077;49.704;9.908;2023-04-01T00:33:16;96593.91;;;13.87
27826;BMP280;15077;49.704;9.908;2023-04-01T00:35:44;96589.75;;;13.86
27826;BMP280;15077;49.704;9.908;2023-04-01T00:38:10;96591.50;;;13.86
27826;BMP280;15077;49.704;9.908;2023-04-01T00:40:43;96608.41;;;13.87
27826;BMP280;15077;49.704;9.908;2023-04-01T00:43:19;96589.75;;;13.86
27826;BMP280;15077;49.704;9.908;2023-04-01T00:45:48;96586.41;;;13.86
27826;BMP280;15077;49.704;9.908;2023-04-01T00:48:19;96600.88;;;13.85
27826;BMP280;15077;49.704;9.908;2023-04-01T00:50:52;96586.53;;;13.84
27826;BMP280;15077;49.704;9.908;2023-04-01T00:53:20;96585.59;;;13.85
27826;BMP280;15077;49.704;9.908;2023-04-01T00:55:55;96588.16;;;13.85
27826;BMP280;15077;49.704;9.908;2023-04-01T00:58:25;96585.59;;;13.85
27826;BMP280;15077;49.704;9.908;2023-04-01T01:00:53;96583.97;;;13.84
27826;BMP280;15077;49.704;9.908;2023-04-01T01:03:20;96589.97;;;13.83
27826;BMP280;15077;49.704;9.908;2023-04-01T01:06:17;96585.94;;;13.81
27826;BMP280;15077;49.704;9.908;2023-04-01T01:09:30;96595.31;;;13.80
27826;BMP280;15077;49.704;9.908;2023-04-01T01:12:12;96596.03;;;13.82
27826;BMP280;15077;49.704;9.908;2023-04-01T01:23:29;96584.22;;;13.81
27826;BMP280;15077;49.704;9.908;2023-04-01T01:31:37;96579.47;;;13.77
27826;BMP280;15077;49.704;9.908;2023-04-01T01:37:20;96572.88;;;13.74
27826;BMP280;15077;49.704;9.908;2023-04-01T01:39:55;96574.50;;;13.75
27826;BMP280;15077;49.704;9.908;2023-04-01T01:42:24;96575.28;;;13.76
27826;BMP280;15077;49.704;9.908;2023-04-01T01:44:53;96577.84;;;13.76
27826;BMP280;15077;49.704;9.908;2023-04-01T01:47:24;96577.03;;;13.75
27826;BMP280;15077;49.704;9.908;2023-04-01T01:49:53;96588.94;;;13.75
27826;BMP280;15077;49.704;9.908;2023-04-01T01:52:19;96571.13;;;13.75
27826;BMP280;15077;49.704;9.908;2023-04-01T01:54:57;96570.31;;;13.74
27826;BMP280;15077;49.704;9.908;2023-04-01T01:57:34;96570.56;;;13.71
27826;BMP280;15077;49.704;9.908;2023-04-01T02:00:09;96576.44;;;13.72
27826;BMP280;15077;49.704;9.908;2023-04-01T02:02:41;96568.81;;;13.72
27826;BMP280;15077;49.704;9.908;2023-04-01T02:05:13;96584.91;;;13.72
27826;BMP280;15077;49.704;9.908;2023-04-01T02:07:48;96581.53;;;13.72
27826;BMP280;15077;49.704;9.908;2023-04-01T02:10:21;96559.69;;;13.69
27826;BMP280;15077;49.704;9.908;2023-04-01T02:12:49;96567.22;;;13.71
27826;BMP280;15077;49.704;9.908;2023-04-01T02:15:19;96571.25;;;13.73
27826;BMP280;15077;49.704;9.908;2023-04-01T02:17:47;96582.25;;;13.74
27826;BMP280;15077;49.704;9.908;2023-04-01T02:20:20;96580.50;;;13.74
27826;BMP280;15077;49.704;9.908;2023-04-01T02:22:51;96571.94;;;13.75
27826;BMP280;15077;49.704;9.908;2023-04-01T02:25:24;96562.00;;;13.72
27826;BMP280;15077;49.704;9.908;2023-04-01T02:27:52;96575.66;;;13.71
27826;BMP280;15077;49.704;9.908;2023-04-01T02:30:20;96573.34;;;13.68
27826;BMP280;15077;49.704;9.908;2023-04-01T02:32:47;96584.31;;;13.69
27826;BMP280;15077;49.704;9.908;2023-04-01T02:35:16;96576.78;;;13.67
27826;BMP280;15077;49.704;9.908;2023-04-01T02:37:44;96574.25;;;13.67
27826;BMP280;15077;49.704;9.908;2023-04-01T02:40:14;96583.53;;;13.68
27826;BMP280;15077;49.704;9.908;2023-04-01T02:42:40;96581.88;;;13.67
27826;BMP280;15077;49.704;9.908;2023-04-01T02:45:07;96579.34;;;13.67
27826;BMP280;15077;49.704;9.908;2023-04-01T02:47:33;96578.66;;;13.65
27826;BMP280;15077;49.704;9.908;2023-04-01T02:50:03;96582.13;;;13.64
27826;BMP280;15077;49.704;9.908;2023-04-01T02:52:30;96576.22;;;13.64
27826;BMP280;15077;49.704;9.908;2023-04-01T02:54:57;96575.44;;;13.63
27826;BMP280;15077;49.704;9.908;2023-04-01T02:57:24;96579.56;;;13.64
27826;BMP280;15077;49.704;9.908;2023-04-01T02:59:50;96574.47;;;13.64
27826;BMP280;15077;49.704;9.908;2023-04-01T03:02:17;96579.56;;;13.64
27826;BMP280;15077;49.704;9.908;2023-04-01T03:04:43;96572.78;;;13.65
27826;BMP280;15077;49.704;9.908;2023-04-01T03:07:09;96575.19;;;13.66
27826;BMP280;15077;49.704;9.908;2023-04-01T03:09:36;96576.78;;;13.67
27826;BMP280;15077;49.704;9.908;2023-04-01T03:12:06;96578.44;;;13.68
27826;BMP280;15077;49.704;9.908;2023-04-01T03:14:31;96585.16;;;13.69
27826;BMP280;15077;49.704;9.908;2023-04-01T03:16:57;96578.44;;;13.68
27826;BMP280;15077;49.704;9.908;2023-04-01T03:19:23;96577.63;;;13.68
27826;BMP280;15077;49.704;9.908;2023-04-01T03:21:49;96578.44;;;13.68
27826;BMP280;15077;49.704;9.908;2023-04-01T03:24:14;96573.44;;;13.67
27826;BMP280;15077;49.704;9.908;2023-04-01T03:26:40;96573.34;;;13.68
27826;BMP280;15077;49.704;9.908;2023-04-01T03:29:07;96586.75;;;13.70
27826;BMP280;15077;49.704;9.908;2023-04-01T03:31:33;96574.97;;;13.69
27826;BMP280;15077;49.704;9.908;2023-04-01T03:34:00;96579.09;;;13.70
27826;BMP280;15077;49.704;9.908;2023-04-01T03:36:26;96581.66;;;13.70
27826;BMP280;15077;49.704;9.908;2023-04-01T03:38:51;96574.97;;;13.69
27826;BMP280;15077;49.704;9.908;2023-04-01T03:41:18;96565.47;;;13.71
27826;BMP280;15077;49.704;9.908;2023-04-01T03:43:44;96576.44;;;13.72
27826;BMP280;15077;49.704;9.908;2023-04-01T03:46:10;96566.25;;;13.72
27826;BMP280;15077;49.704;9.908;2023-04-01T03:48:36;96568.56;;;13.75
27826;BMP280;15077;49.704;9.908;2023-04-01T03:51:07;96571.00;;;13.76
27826;BMP280;15077;49.704;9.908;2023-04-01T03:53:34;96574.50;;;13.75
27826;BMP280;15077;49.704;9.908;2023-04-01T03:56:07;96570.19;;;13.76
27826;BMP280;15077;49.704;9.908;2023-04-01T03:58:36;96566.84;;;13.75
27826;BMP280;15077;49.704;9.908;2023-04-01T04:01:22;96569.75;;;13.71
27826;BMP280;15077;49.704;9.908;2023-04-01T04:03:50;96565.47;;;13.71
27826;BMP280;15077;49.704;9.908;2023-04-01T04:06:19;96583.28;;;13.71
27826;BMP280;15077;49.704;9.908;2023-04-01T04:08:45;96587.69;;;13.69
27826;BMP280;15077;49.704;9.908;2023-04-01T04:11:11;96578.44;;;13.68
27826;BMP280;15077;49.704;9.908;2023-04-01T04:13:37;96577.63;;;13.68
27826;BMP280;15077;49.704;9.908;2023-04-01T04:16:03;96574.25;;;13.67
27826;BMP280;15077;49.704;9.908;2023-04-01T04:18:29;96572.53;;;13.68
27826;BMP280;15077;49.704;9.908;2023-04-01T04:20:55;96580.28;;;13.66
27826;BMP280;15077;49.704;9.908;2023-04-01T04:23:21;96578.66;;;13.65
27826;BMP280;15077;49.704;9.908;2023-04-01T04:26:06;96583.97;;;13.62
27826;BMP280;15077;49.704;9.908;2023-04-01T04:28:33;96582.22;;;13.63
27826;BMP280;15077;49.704;9.908;2023-04-01T04:31:00;96587.44;;;13.61
27826;BMP280;15077;49.704;9.908;2023-04-01T04:33:26;96582.47;;;13.60
27826;BMP280;15077;49.704;9.908;2023-04-01T04:35:56;96586.75;;;13.59
27826;BMP280;15077;49.704;9.908;2023-04-01T04:38:22;96585.13;;;13.58
27826;BMP280;15077;49.704;9.908;2023-04-01T04:40:49;96589.53;;;13.57
27826;BMP280;15077;49.704;9.908;2023-04-01T04:43:17;96589.66;;;13.55
27826;BMP280;15077;49.704;9.908;2023-04-01T04:45:44;96592.53;;;13.51
27826;BMP280;15077;49.704;9.908;2023-04-01T04:48:15;96591.88;;;13.49
27826;BMP280;15077;49.704;9.908;2023-04-01T04:50:45;96589.56;;;13.46
27826;BMP280;15077;49.704;9.908;2023-04-01T04:53:16;96595.56;;;13.45
27826;BMP280;15077;49.704;9.908;2023-04-01T04:55:49;96583.75;;;13.44
27826;BMP280;15077;49.704;9.908;2023-04-01T04:58:17;96583.84;;;13.42
27826;BMP280;15077;49.704;9.908;2023-04-01T05:00:43;96588.16;;;13.42
27826;BMP280;15077;49.704;9.908;2023-04-01T05:03:11;96588.16;;;13.42
27826;BMP280;15077;49.704;9.908;2023-04-01T05:05:37;96579.81;;;13.40
27826;BMP280;15077;49.704;9.908;2023-04-01T05:08:04;96576.44;;;13.39
27826;BMP280;15077;49.704;9.908;2023-04-01T05:10:30;96581.53;;;13.39
27826;BMP280;15077;49.704;9.908;2023-04-01T05:12:57;96581.78;;;13.36
27826;BMP280;15077;49.704;9.908;2023-04-01T05:15:24;96580.25;;;13.34
27826;BMP280;15077;49.704;9.908;2023-04-01T05:17:50;96570.31;;;13.31
27826;BMP280;15077;49.704;9.908;2023-04-01T05:20:16;96576.34;;;13.30
27826;BMP280;15077;49.704;9.908;2023-04-01T05:22:43;96561.66;;;13.33
27826;BMP280;15077;49.704;9.908;2023-04-01T05:25:09;96571.03;;;13.33
27826;BMP280;15077;49.704;9.908;2023-04-01T05:27:35;96573.69;;;13.31
27826;BMP280;15077;49.704;9.908;2023-04-01T05:30:01;96572.84;;;13.31
27826;BMP280;15077;49.704;9.908;2023-04-01T05:32:27;96573.69;;;13.31
27826;BMP280;15077;49.704;9.908;2023-04-01T05:34:53;96581.09;;;13.34
27826;BMP280;15077;49.704;9.908;2023-04-01T05:37:19;96565.94;;;13.33
27826;BMP280;15077;49.704;9.908;2023-04-01T05:39:45;96585.34;;;13.34
27826;BMP280;15077;49.704;9.908;2023-04-01T05:42:11;96571.94;;;13.32
27826;BMP280;15077;49.704;9.908;2023-04-01T05:44:38;96565.09;;;13.32
27826;BMP280;15077;49.704;9.908;2023-04-01T05:47:04;96573.47;;;13.34
27826;BMP280;15077;49.704;9.908;2023-04-01T05:49:30;96576.81;;;13.35
27826;BMP280;15077;49.704;9.908;2023-04-01T05:51:56;96573.47;;;13.34
27826;BMP280;15077;49.704;9.908;2023-04-01T05:54:23;96570.78;;;13.36
27826;BMP280;15077;49.704;9.908;2023-04-01T05:56:48;96568.94;;;13.38
27826;BMP280;15077;49.704;9.908;2023-04-01T05:59:14;96569.66;;;13.40
27826;BMP280;15077;49.704;9.908;2023-04-01T06:01:40;96568.59;;;13.42
27826;BMP280;15077;49.704;9.908;2023-04-01T06:04:06;96566.88;;;13.43
27826;BMP280;15077;49.704;9.908;2023-04-01T06:06:42;96569.31;;;13.44
27826;BMP280;15077;49.704;9.908;2023-04-01T06:09:26;96572.75;;;13.43
27826;BMP280;15077;49.704;9.908;2023-04-01T06:20:53;96569.16;;;13.35
27826;BMP280;15077;49.704;9.908;2023-04-01T06:24:07;96576.81;;;13.35
27826;BMP280;15077;49.704;9.908;2023-04-01T06:27:07;96568.38;;;13.34
27826;BMP280;15077;49.704;9.908;2023-04-01T06:33:01;96568.47;;;13.44
27826;BMP280;15077;49.704;9.908;2023-04-01T06:38:45;96568.13;;;13.48
27826;BMP280;15077;49.704;9.908;2023-04-01T06:46:47;96577.25;;;13.61
27826;BMP280;15077;49.704;9.908;2023-04-01T06:52:22;96574.38;;;13.66
27826;BMP280;15077;49.704;9.908;2023-04-01T06:55:02;96575.19;;;13.66
27826;BMP280;15077;49.704;9.908;2023-04-01T06:57:55;96575.19;;;13.66
27826;BMP280;15077;49.704;9.908;2023-04-01T07:00:44;96581.09;;;13.67
27826;BMP280;15077;49.704;9.908;2023-04-01T07:06:10;96578.88;;;13.73
27826;BMP280;15077;49.704;9.908;2023-04-01T07:08:41;96572.88;;;13.74
27826;BMP280;15077;49.704;9.908;2023-04-01T07:11:29;96568.69;;;13.73
27826;BMP280;15077;49.704;9.908;2023-04-01T07:14:30;96584.78;;;13.74
27826;BMP280;15077;49.704;9.908;2023-04-01T07:17:23;96574.38;;;13.77
27826;BMP280;15077;49.704;9.908;2023-04-01T07:20:23;96579.00;;;13.72
27826;BMP280;15077;49.704;9.908;2023-04-01T07:22:54;96583.97;;;13.73
27826;BMP280;15077;49.704;9.908;2023-04-01T07:25:28;96585.59;;;13.74
27826;BMP280;15077;49.704;9.908;2023-04-01T07:28:06;96572.19;;;13.72
27826;BMP280;15077;49.704;9.908;2023-04-01T07:34:26;96581.88;;;13.67
27826;BMP280;15077;49.704;9.908;2023-04-01T07:37:26;96582.72;;;13.68
27826;BMP280;15077;49.704;9.908;2023-04-01T07:40:04;96592.66;;;13.71
27826;BMP280;15077;49.704;9.908;2023-04-01T07:43:32;96588.84;;;13.65
27826;BMP280;15077;49.704;9.908;2023-04-01T07:49:15;96591.16;;;13.68
27826;BMP280;15077;49.704;9.908;2023-04-01T07:52:16;96586.97;;;13.67
27826;BMP280;15077;49.704;9.908;2023-04-01T07:57:55;96583.53;;;13.68
27826;BMP280;15077;49.704;9.908;2023-04-01T08:06:24;96589.78;;;13.75
27826;BMP280;15077;49.704;9.908;2023-04-01T08:09:17;96590.69;;;13.74
27826;BMP280;15077;49.704;9.908;2023-04-01T08:12:07;96593.91;;;13.76
27826;BMP280;15077;49.704;9.908;2023-04-01T08:17:45;96605.59;;;13.79
27826;BMP280;15077;49.704;9.908;2023-04-01T08:20:39;96580.28;;;13.77
27826;BMP280;15077;49.704;9.908;2023-04-01T08:23:22;96601.44;;;13.78
27826;BMP280;15077;49.704;9.908;2023-04-01T08:28:43;96599.69;;;13.67
27826;BMP280;15077;49.704;9.908;2023-04-01T08:31:30;96607.22;;;13.69
27826;BMP280;15077;49.704;9.908;2023-04-01T08:33:59;96608.50;;;13.74
27826;BMP280;15077;49.704;9.908;2023-04-01T08:36:47;96614.63;;;13.72
27826;BMP280;15077;49.704;9.908;2023-04-01T08:39:34;96614.06;;;13.68
27826;BMP280;15077;49.704;9.908;2023-04-01T08:47:46;96617.19;;;13.61
27826;BMP280;15077;49.704;9.908;2023-04-01T08:50:35;96614.75;;;13.59
27826;BMP280;15077;49.704;9.908;2023-04-01T08:56:01;96614.19;;;13.56
27826;BMP280;15077;49.704;9.908;2023-04-01T08:59:13;96620.53;;;13.51
27826;BMP280;15077;49.704;9.908;2023-04-01T09:02:12;96611.16;;;13.51
27826;BMP280;15077;49.704;9.908;2023-04-01T09:08:17;96612.44;;;13.46
27826;BMP280;15077;49.704;9.908;2023-04-01T09:27:04;96613.25;;;13.46
27826;BMP280;15077;49.704;9.908;2023-04-01T09:35:48;96618.44;;;13.56
27826;BMP280;15077;49.704;9.908;2023-04-01T09:44:25;96619.84;;;13.59
27826;BMP280;15077;49.704;9.908;2023-04-01T10:07:27;96623.56;;;13.88
27826;BMP280;15077;49.704;9.908;2023-04-01T10:16:57;96627.72;;;13.89
27826;BMP280;15077;49.704;9.908;2023-04-01T10:19:53;96615.47;;;13.94
27826;BMP280;15077;49.704;9.908;2023-04-01T10:28:36;96620.19;;;13.99
27826;BMP280;15077;49.704;9.908;2023-04-01T10:40:41;96620.56;;;14.05
27826;BMP280;15077;49.704;9.908;2023-04-01T11:04:56;96621.19;;;14.29
27826;BMP280;15077;49.704;9.908;2023-04-01T11:11:18;96608.47;;;14.29
27826;BMP280;15077;49.704;9.908;2023-04-01T11:17:17;96609.84;;;14.33
27826;BMP280;15077;49.704;9.908;2023-04-01T11:20:42;96605.13;;;14.28
27826;BMP280;15077;49.704;9.908;2023-04-01T11:26:33;96612.63;;;14.30
27826;BMP280;15077;49.704;9.908;2023-04-01T11:32:24;96614.97;;;14.22
27826;BMP280;15077;49.704;9.908;2023-04-01T11:35:13;96611.50;;;14.23
27826;BMP280;15077;49.704;9.908;2023-04-01T11:46:56;96619.13;;;14.23
27826;BMP280;15077;49.704;9.908;2023-04-01T11:58:06;96643.69;;;14.24
27826;BMP280;15077;49.704;9.908;2023-04-01T12:01:20;96639.41;;;14.24
27826;BMP280;15077;49.704;9.908;2023-04-01T12:04:26;96639.28;;;14.26
27826;BMP280;15077;49.704;9.908;2023-04-01T12:07:19;96649.94;;;14.31
27826;BMP280;15077;49.704;9.908;2023-04-01T12:09:55;96630.00;;;14.36
27826;BMP280;15077;49.704;9.908;2023-04-01T12:12:38;96639.16;;;14.38
27826;BMP280;15077;49.704;9.908;2023-04-01T12:27:14;96651.53;;;14.43
27826;BMP280;15077;49.704;9.908;2023-04-01T12:32:44;96651.75;;;14.51
27826;BMP280;15077;49.704;9.908;2023-04-01T13:00:25;96668.44;;;14.55
27826;BMP280;15077;49.704;9.908;2023-04-01T13:18:00;96682.09;;;14.54
27826;BMP280;15077;49.704;9.908;2023-04-01T13:29:45;96678.63;;;14.55
27826;BMP280;15077;49.704;9.908;2023-04-01T13:35:39;96683.38;;;14.48
27826;BMP280;15077;49.704;9.908;2023-04-01T13:41:16;96681.66;;;14.49
27826;BMP280;15077;49.704;9.908;2023-04-01T13:43:52;96676.66;;;14.47
27826;BMP280;15077;49.704;9.908;2023-04-01T13:46:44;96678.38;;;14.47
27826;BMP280;15077;49.704;9.908;2023-04-01T13:58:58;96705.06;;;14.43
27826;BMP280;15077;49.704;9.908;2023-04-01T14:02:07;96701.31;;;14.47
27826;BMP280;15077;49.704;9.908;2023-04-01T14:05:04;96683.97;;;14.52
27826;BMP280;15077;49.704;9.908;2023-04-01T14:08:05;96692.41;;;14.52
27826;BMP280;15077;49.704;9.908;2023-04-01T14:11:13;96700.97;;;14.51
27826;BMP280;15077;49.704;9.908;2023-04-01T14:38:46;96712.13;;;14.50
27826;BMP280;15077;49.704;9.908;2023-04-01T14:41:17;96721.25;;;14.53
27826;BMP280;15077;49.704;9.908;2023-04-01T14:49:53;96719.41;;;14.44
27826;BMP280;15077;49.704;9.908;2023-04-01T14:52:33;96721.03;;;14.45
27826;BMP280;15077;49.704;9.908;2023-04-01T14:55:19;96728.69;;;14.45
27826;BMP280;15077;49.704;9.908;2023-04-01T15:04:25;96722.31;;;14.39
27826;BMP280;15077;49.704;9.908;2023-04-01T15:10:30;96732.16;;;14.33
27826;BMP280;15077;49.704;9.908;2023-04-01T15:16:27;96739.81;;;14.33
27826;BMP280;15077;49.704;9.908;2023-04-01T15:22:42;96739.34;;;14.28
27826;BMP280;15077;49.704;9.908;2023-04-01T15:33:48;96746.78;;;14.31
27826;BMP280;15077;49.704;9.908;2023-04-01T15:42:25;96752.78;;;14.30
27826;BMP280;15077;49.704;9.908;2023-04-01T15:48:40;96755.09;;;14.33
27826;BMP280;15077;49.704;9.908;2023-04-01T15:54:16;96761.00;;;14.33
27826;BMP280;15077;49.704;9.908;2023-04-01T16:00:28;96758.81;;;14.29
27826;BMP280;15077;49.704;9.908;2023-04-01T16:23:01;96788.22;;;14.22
27826;BMP280;15077;49.704;9.908;2023-04-01T16:25:36;96778.72;;;14.13
27826;BMP280;15077;49.704;9.908;2023-04-01T16:28:50;96787.88;;;14.15
27826;BMP280;15077;49.704;9.908;2023-04-01T16:37:21;96794.72;;;14.15
27826;BMP280;15077;49.704;9.908;2023-04-01T16:40:13;96793.09;;;14.14
27826;BMP280;15077;49.704;9.908;2023-04-01T16:42:56;96799.69;;;14.16
27826;BMP280;15077;49.704;9.908;2023-04-01T16:45:41;96796.44;;;14.14
27826;BMP280;15077;49.704;9.908;2023-04-01T16:48:14;96792.28;;;14.13
27826;BMP280;15077;49.704;9.908;2023-04-01T16:53:41;96806.97;;;14.10
27826;BMP280;15077;49.704;9.908;2023-04-01T16:56:16;96812.78;;;14.12
27826;BMP280;15077;49.704;9.908;2023-04-01T17:02:02;96819.94;;;14.07
27826;BMP280;15077;49.704;9.908;2023-04-01T17:04:51;96820.66;;;14.09
27826;BMP280;15077;49.704;9.908;2023-04-01T17:15:41;96830.94;;;14.07
27826;BMP280;15077;49.704;9.908;2023-04-01T17:23:50;96839.22;;;13.99
27826;BMP280;15077;49.704;9.908;2023-04-01T17:30:16;96845.81;;;13.90
27826;BMP280;15077;49.704;9.908;2023-04-01T17:35:54;96848.34;;;13.90
27826;BMP280;15077;49.704;9.908;2023-04-01T17:38:50;96854.25;;;13.91
27826;BMP280;15077;49.704;9.908;2023-04-01T17:41:45;96865.50;;;13.88
27826;BMP280;15077;49.704;9.908;2023-04-01T17:58:56;96884.34;;;13.86
27826;BMP280;15077;49.704;9.908;2023-04-01T18:02:15;96892.78;;;13.86
27826;BMP280;15077;49.704;9.908;2023-04-01T18:08:04;96904.31;;;13.79
27826;BMP280;15077;49.704;9.908;2023-04-01T18:23:12;96923.78;;;13.80
27826;BMP280;15077;49.704;9.908;2023-04-01T18:25:43;96924.50;;;13.82
27826;BMP280;15077;49.704;9.908;2023-04-01T18:28:41;96930.50;;;13.81
27826;BMP280;15077;49.704;9.908;2023-04-01T18:31:15;96932.13;;;13.82
27826;BMP280;15077;49.704;9.908;2023-04-01T18:36:53;96945.16;;;13.78
27826;BMP280;15077;49.704;9.908;2023-04-01T18:39:37;96950.16;;;13.79
27826;BMP280;15077;49.704;9.908;2023-04-01T18:42:36;96948.75;;;13.75
27826;BMP280;15077;49.704;9.908;2023-04-01T18:45:27;96963.81;;;13.78
27826;BMP280;15077;49.704;9.908;2023-04-01T18:48:54;96966.69;;;13.74
27826;BMP280;15077;49.704;9.908;2023-04-01T18:51:45;96971.47;;;13.78
27826;BMP280;15077;49.704;9.908;2023-04-01T18:54:22;96975.50;;;13.81
27826;BMP280;15077;49.704;9.908;2023-04-01T18:56:49;96976.22;;;13.83
27826;BMP280;15077;49.704;9.908;2023-04-01T18:59:51;96976.34;;;13.81
27826;BMP280;15077;49.704;9.908;2023-04-01T19:02:38;96976.00;;;13.86
27826;BMP280;15077;49.704;9.908;2023-04-01T19:07:54;96984.47;;;13.86
27826;BMP280;15077;49.704;9.908;2023-04-01T19:13:14;96989.56;;;13.86
27826;BMP280;15077;49.704;9.908;2023-04-01T19:19:29;96998.13;;;13.85
27826;BMP280;15077;49.704;9.908;2023-04-01T19:25:38;96999.25;;;13.81
27826;BMP280;15077;49.704;9.908;2023-04-01T19:29:02;97007.13;;;13.78
27826;BMP280;15077;49.704;9.908;2023-04-01T19:46:01;97008.53;;;13.82
27826;BMP280;15077;49.704;9.908;2023-04-01T19:51:42;97018.91;;;13.79
27826;BMP280;15077;49.704;9.908;2023-04-01T19:54:30;97025.84;;;13.77
27826;BMP280;15077;49.704;9.908;2023-04-01T19:57:27;97031.84;;;13.76
27826;BMP280;15077;49.704;9.908;2023-04-01T20:02:43;97034.19;;;13.79
27826;BMP280;15077;49.704;9.908;2023-04-01T20:05:35;97037.66;;;13.78
27826;BMP280;15077;49.704;9.908;2023-04-01T20:11:28;97039.69;;;13.73
27826;BMP280;15077;49.704;9.908;2023-04-01T20:20:36;97044.91;;;13.72
27826;BMP280;15077;49.704;9.908;2023-04-01T20:23:50;97051.03;;;13.69
27826;BMP280;15077;49.704;9.908;2023-04-01T20:26:26;97053.25;;;13.74
27826;BMP280;15077;49.704;9.908;2023-04-01T20:38:16;97050.53;;;13.64
27826;BMP280;15077;49.704;9.908;2023-04-01T20:40:50;97055.19;;;13.70
27826;BMP280;15077;49.704;9.908;2023-04-01T20:49:39;97068.44;;;13.63
27826;BMP280;15077;49.704;9.908;2023-04-01T20:58:06;97074.59;;;13.60
27826;BMP280;15077;49.704;9.908;2023-04-01T21:01:12;97084.97;;;13.57
27826;BMP280;15077;49.704;9.908;2023-04-01T21:09:46;97091.56;;;13.60
27826;BMP280;15077;49.704;9.908;2023-04-01T21:15:44;97105.34;;;13.57
27826;BMP280;15077;49.704;9.908;2023-04-01T21:30:04;97116.94;;;13.49
27826;BMP280;15077;49.704;9.908;2023-04-01T21:53:25;97146.47;;;13.39
27826;BMP280;15077;49.704;9.908;2023-04-01T22:11:06;97163.13;;;13.31
27826;BMP280;15077;49.704;9.908;2023-04-01T22:14:12;97168.44;;;13.28
27826;BMP280;15077;49.704;9.908;2023-04-01T22:16:55;97172.41;;;13.32
27826;BMP280;15077;49.704;9.908;2023-04-01T22:22:27;97175.06;;;13.30
27826;BMP280;15077;49.704;9.908;2023-04-01T22:25:16;97178.41;;;13.31
27826;BMP280;15077;49.704;9.908;2023-04-01T22:28:21;97181.25;;;13.26
27826;BMP280;15077;49.704;9.908;2023-04-01T22:30:50;97173.31;;;13.31
27826;BMP280;15077;49.704;9.908;2023-04-01T22:36:35;97178.59;;;13.28
27826;BMP280;15077;49.704;9.908;2023-04-01T22:40:03;97183.09;;;13.24
27826;BMP280;15077;49.704;9.908;2023-04-01T22:42:47;97188.09;;;13.26
27826;BMP280;15077;49.704;9.908;2023-04-01T22:45:36;97190.63;;;13.26
27826;BMP280;15077;49.704;9.908;2023-04-01T22:48:13;97190.44;;;13.29
27826;BMP280;15077;49.704;9.908;2023-04-01T22:50:59;97193.88;;;13.28
27826;BMP280;15077;49.704;9.908;2023-04-01T22:56:44;97198.75;;;13.18
27826;BMP280;15077;49.704;9.908;2023-04-01T22:59:39;97198.84;;;13.17
27826;BMP280;15077;49.704;9.908;2023-04-01T23:02:33;97204.03;;;13.15
27826;BMP280;15077;49.704;9.908;2023-04-01T23:05:05;97204.75;;;13.17
27826;BMP280;15077;49.704;9.908;2023-04-01T23:10:39;97212.47;;;13.16
27826;BMP280;15077;49.704;9.908;2023-04-01T23:13:16;97208.13;;;13.18
27826;BMP280;15077;49.704;9.908;2023-04-01T23:15:44;97213.22;;;13.18
27826;BMP280;15077;49.704;9.908;2023-04-01T23:21:23;97218.50;;;13.15
27826;BMP280;15077;49.704;9.908;2023-04-01T23:24:14;97218.41;;;13.16
27826;BMP280;15077;49.704;9.908;2023-04-01T23:29:18;97221.66;;;13.18
27826;BMP280;15077;49.704;9.908;2023-04-01T23:31:47;97230.09;;;13.19
27826;BMP280;15077;49.704;9.908;2023-04-01T23:36:56;97232.81;;;13.16
27826;BMP280;15077;49.704;9.908;2023-04-01T23:39:38;97235.38;;;13.16
27826;BMP280;15077;49.704;9.908;2023-04-01T23:42:15;97235.56;;;13.13
27826;BMP280;15077;49.704;9.908;2023-04-01T23:44:46;97233.75;;;13.15
27826;BMP280;15077;49.704;9.908;2023-04-01T23:47:18;97243.09;;;13.14
27826;BMP280;15077;49.704;9.908;2023-04-01T23:50:14;97234.16;;;13.09
27826;BMP280;15077;49.704;9.908;2023-04-01T23:52:57;97245.75;;;13.13
27826;BMP280;15077;49.704;9.908;2023-04-01T23:55:32;97254.22;;;13.13
27826;BMP280;15077;49.704;9.908;2023-04-01T23:58:21;97246.50;;;13.15
